Time;durP1;ratioP1;P1;durP2;ratioP2;P2;SDS_P1;SDS_P2;PMS_P1;PMS_P2;Temp;Humidity;BMP_temperature;BMP_pressure;BME280_temperature;BME280_humidity;BME280_pressure;Samples;Min_cycle;Max_cycle;Signal;HPM_P1;HPM_P2
2022/01/29 00:01:58;;;;;;;13.15;6.32;;;1.10;99.90;;;;;;5153025;27;20050;-52
2022/01/29 00:04:24;;;;;;;19.33;7.15;;;1.10;99.90;;;;;;5153112;27;20126;-53
2022/01/29 00:06:51;;;;;;;14.88;6.90;;;1.10;99.90;;;;;;5152832;27;20045;-54
2022/01/29 00:09:18;;;;;;;17.10;7.65;;;1.10;99.90;;;;;;5153024;27;20038;-54
2022/01/29 00:11:45;;;;;;;15.32;5.97;;;1.10;99.90;;;;;;5152994;27;20667;-54
2022/01/29 00:14:12;;;;;;;17.50;5.35;;;1.00;99.90;;;;;;5154222;27;20050;-51
2022/01/29 00:16:40;;;;;;;10.00;4.82;;;1.00;99.90;;;;;;5157057;27;20043;-50
2022/01/29 00:19:08;;;;;;;9.43;4.10;;;1.00;99.90;;;;;;5130147;27;20035;-54
2022/01/29 00:21:34;;;;;;;11.52;4.38;;;1.00;99.90;;;;;;5136083;27;20031;-54
2022/01/29 00:24:01;;;;;;;6.82;4.22;;;1.00;99.90;;;;;;5133250;27;20035;-50
2022/01/29 00:26:28;;;;;;;;;;;1.00;99.90;;;;;;5136807;27;20039;-51
2022/01/29 00:28:57;;;;;;;9.68;4.07;;;1.00;99.90;;;;;;5135849;27;19955;-52
2022/01/29 00:31:24;;;;;;;12.13;4.93;;;1.00;99.90;;;;;;5136388;27;20084;-55
2022/01/29 00:33:51;;;;;;;7.80;3.80;;;1.00;99.90;;;;;;5136285;27;20043;-51
2022/01/29 00:36:18;;;;;;;10.02;3.92;;;1.00;99.90;;;;;;5136180;27;20518;-54
2022/01/29 00:38:45;;;;;;;11.73;4.13;;;1.00;99.90;;;;;;5135528;27;20522;-53
2022/01/29 00:41:12;;;;;;;4.85;2.97;;;1.00;99.90;;;;;;5117917;27;20039;-50
2022/01/29 00:43:38;;;;;;;8.35;3.97;;;1.00;99.90;;;;;;5135715;27;20041;-51
2022/01/29 00:46:05;;;;;;;8.48;3.42;;;1.00;99.90;;;;;;5135929;27;20460;-52
2022/01/29 00:48:32;;;;;;;9.85;3.83;;;1.10;99.90;;;;;;5135587;27;20050;-48
2022/01/29 00:51:00;;;;;;;10.35;3.90;;;1.00;99.90;;;;;;5112168;22;20048;-51
2022/01/29 00:53:27;;;;;;;7.65;3.40;;;1.00;99.90;;;;;;5094483;28;20492;-55
2022/01/29 00:55:54;;;;;;;5.57;3.22;;;1.00;99.90;;;;;;5076791;28;20036;-53
2022/01/29 00:58:21;;;;;;;8.05;3.53;;;1.00;99.90;;;;;;5094282;28;20075;-52
2022/01/29 01:00:47;;;;;;;9.07;4.03;;;0.90;99.90;;;;;;5093494;28;20499;-55
2022/01/29 01:03:15;;;;;;;10.18;4.18;;;1.00;99.90;;;;;;5081115;28;20052;-52
2022/01/29 01:05:41;;;;;;;6.97;3.63;;;1.00;99.90;;;;;;5094547;28;20152;-51
2022/01/29 01:08:10;;;;;;;7.55;3.53;;;0.90;99.90;;;;;;5094167;28;20036;-55
2022/01/29 01:10:38;;;;;;;6.00;2.83;;;1.00;99.90;;;;;;5094450;28;20078;-55
2022/01/29 01:13:05;;;;;;;9.05;4.15;;;0.90;99.90;;;;;;5094548;28;20464;-53
2022/01/29 01:15:32;;;;;;;7.95;4.32;;;0.90;99.90;;;;;;5094347;28;20123;-54
2022/01/29 01:17:59;;;;;;;11.70;4.68;;;0.90;99.90;;;;;;5093736;28;20059;-52
2022/01/29 01:20:27;;;;;;;12.90;5.43;;;0.90;99.90;;;;;;5094281;28;20048;-55
2022/01/29 01:22:54;;;;;;;17.35;6.97;;;0.90;99.90;;;;;;5094336;28;20072;-56
2022/01/29 01:25:21;;;;;;;17.95;7.38;;;0.70;99.90;;;;;;5093538;28;20040;-52
2022/01/29 01:27:48;;;;;;;16.40;7.72;;;0.70;99.90;;;;;;5093746;28;20149;-55
2022/01/29 01:30:15;;;;;;;12.30;6.15;;;0.70;99.90;;;;;;5094183;28;20033;-52
2022/01/29 01:32:42;;;;;;;14.23;6.43;;;0.70;99.90;;;;;;5093893;28;20044;-52
2022/01/29 01:35:21;;;;;;;15.68;6.70;;;0.80;99.90;;;;;;5094089;28;20059;-53
2022/01/29 01:37:54;;;;;;;18.08;6.57;;;0.80;99.90;;;;;;5093594;28;20564;-52
2022/01/29 01:40:22;;;;;;;10.95;4.63;;;0.80;99.90;;;;;;5093952;28;20044;-53
2022/01/29 01:42:49;;;;;;;11.35;4.55;;;0.90;99.90;;;;;;5093804;28;20044;-52
2022/01/29 01:45:16;;;;;;;5.75;2.67;;;0.90;99.90;;;;;;5093646;28;20500;-53
2022/01/29 01:47:43;;;;;;;8.60;3.85;;;0.90;99.90;;;;;;5093333;28;20553;-54
2022/01/29 01:50:10;;;;;;;8.88;3.80;;;0.90;99.90;;;;;;5093642;28;20090;-54
2022/01/29 01:52:37;;;;;;;;;;;0.90;99.90;;;;;;5094138;28;20032;-54
2022/01/29 01:55:04;;;;;;;13.45;6.72;;;0.90;99.90;;;;;;5093538;28;19920;-52
2022/01/29 01:57:31;;;;;;;13.60;7.00;;;0.90;99.90;;;;;;5093147;28;20044;-52
2022/01/29 01:59:58;;;;;;;14.07;6.25;;;0.80;99.90;;;;;;5093557;28;20079;-52
2022/01/29 02:02:25;;;;;;;13.75;7.18;;;0.80;99.90;;;;;;5093509;28;20044;-53
2022/01/29 02:04:53;;;;;;;11.13;5.30;;;0.80;99.90;;;;;;5093470;28;20046;-52
2022/01/29 02:07:20;;;;;;;11.00;5.30;;;0.70;99.90;;;;;;5092883;28;20119;-51
2022/01/29 02:09:46;;;;;;;10.70;5.72;;;0.70;99.90;;;;;;5093341;28;20048;-56
2022/01/29 02:12:14;;;;;;;9.00;5.18;;;0.80;99.90;;;;;;5093178;28;20548;-54
2022/01/29 02:14:41;;;;;;;15.52;5.13;;;0.80;99.90;;;;;;5093202;28;20040;-52
2022/01/29 02:17:09;;;;;;;12.20;4.75;;;0.80;99.90;;;;;;5092829;28;20131;-50
2022/01/29 02:19:36;;;;;;;8.05;4.85;;;0.80;99.90;;;;;;5092891;28;20040;-55
2022/01/29 02:22:04;;;;;;;7.43;4.20;;;0.80;99.90;;;;;;5093206;28;20123;-53
2022/01/29 02:24:31;;;;;;;7.85;4.15;;;0.70;99.90;;;;;;5093064;28;20040;-53
2022/01/29 02:26:57;;;;;;;12.35;5.03;;;0.80;99.90;;;;;;5092592;28;20123;-52
2022/01/29 02:29:24;;;;;;;10.95;5.05;;;0.80;99.90;;;;;;5093039;28;20109;-54
2022/01/29 02:31:55;;;;;;;11.02;5.78;;;0.80;99.90;;;;;;5092746;28;20499;-52
2022/01/29 02:34:24;;;;;;;13.23;7.68;;;0.70;99.90;;;;;;5093155;28;20381;-52
2022/01/29 02:36:52;;;;;;;13.98;7.70;;;0.70;99.90;;;;;;5091696;28;20400;-55
2022/01/29 02:39:20;;;;;;;20.45;8.85;;;0.70;99.90;;;;;;5092444;28;20040;-51
2022/01/29 02:41:48;;;;;;;18.63;8.60;;;0.60;99.90;;;;;;5092579;28;20492;-51
2022/01/29 02:44:20;;;;;;;;;;;0.60;99.90;;;;;;5093222;28;20097;-52
2022/01/29 02:49:15;;;;;;;17.38;8.25;;;0.60;99.90;;;;;;5092346;28;20076;-52
2022/01/29 02:51:51;;;;;;;15.32;8.60;;;0.50;99.90;;;;;;5092455;28;20153;-50
2022/01/29 02:54:18;;;;;;;16.88;8.55;;;0.50;99.90;;;;;;5092458;28;20445;-52
2022/01/29 02:56:46;;;;;;;22.50;9.88;;;0.50;99.90;;;;;;5092318;28;20040;-50
2022/01/29 02:59:13;;;;;;;22.95;10.30;;;0.60;99.90;;;;;;5092251;28;20093;-54
2022/01/29 03:01:41;;;;;;;18.10;9.48;;;0.60;99.90;;;;;;5092314;28;20040;-51
2022/01/29 03:04:09;;;;;;;20.00;8.57;;;0.50;99.90;;;;;;5092297;28;20032;-52
2022/01/29 03:06:36;;;;;;;16.20;8.27;;;0.50;99.90;;;;;;5092039;28;20040;-51
2022/01/29 03:09:05;;;;;;;14.25;7.97;;;0.50;99.90;;;;;;5073730;28;20593;-51
2022/01/29 03:11:32;;;;;;;20.30;8.75;;;0.50;99.90;;;;;;5092173;28;20052;-54
2022/01/29 03:13:59;;;;;;;15.40;8.23;;;0.50;99.90;;;;;;5092227;28;20130;-53
2022/01/29 03:16:26;;;;;;;13.20;7.70;;;0.60;99.90;;;;;;5091940;28;20066;-55
2022/01/29 03:18:53;;;;;;;17.73;9.05;;;0.60;99.90;;;;;;5091524;28;20541;-55
2022/01/29 03:21:20;;;;;;;19.35;8.20;;;0.60;99.90;;;;;;5092215;28;20048;-55
2022/01/29 03:23:46;;;;;;;18.00;8.20;;;0.60;99.90;;;;;;5092006;28;20492;-55
2022/01/29 03:26:13;;;;;;;15.00;6.25;;;0.60;99.90;;;;;;5092073;28;20044;-53
2022/01/29 03:28:40;;;;;;;17.73;7.47;;;0.60;99.90;;;;;;5091475;28;20399;-51
2022/01/29 03:31:07;;;;;;;12.07;6.57;;;0.50;99.90;;;;;;5091811;28;20039;-53
2022/01/29 03:33:34;;;;;;;11.35;6.10;;;0.50;99.90;;;;;;5091739;28;20073;-53
2022/01/29 03:36:01;;;;;;;11.10;6.38;;;0.50;99.90;;;;;;5091875;28;20033;-54
2022/01/29 03:38:28;;;;;;;10.55;5.70;;;0.50;99.90;;;;;;5091095;28;20048;-55
2022/01/29 03:40:57;;;;;;;6.88;4.20;;;0.50;99.90;;;;;;5091866;28;20040;-53
2022/01/29 03:43:29;;;;;;;12.48;6.45;;;0.50;99.90;;;;;;5091731;28;20040;-53
2022/01/29 03:45:56;;;;;;;13.00;6.20;;;0.50;99.90;;;;;;5091771;28;20039;-54
2022/01/29 03:48:23;;;;;;;13.98;6.35;;;0.50;99.90;;;;;;5090966;28;20517;-56
2022/01/29 03:50:50;;;;;;;;;;;0.60;99.90;;;;;;5092096;28;20457;-51
2022/01/29 03:53:17;;;;;;;14.15;7.03;;;0.60;99.90;;;;;;5091570;28;20011;-56
2022/01/29 03:55:44;;;;;;;14.75;7.32;;;0.60;99.90;;;;;;5091547;28;20098;-53
2022/01/29 03:58:11;;;;;;;13.80;6.45;;;0.60;99.90;;;;;;5091234;28;20458;-50
2022/01/29 04:00:37;;;;;;;14.82;7.03;;;0.60;99.90;;;;;;5091454;28;20097;-51
2022/01/29 04:03:04;;;;;;;9.23;5.32;;;0.60;99.90;;;;;;5091575;28;20496;-52
2022/01/29 04:05:31;;;;;;;13.48;7.03;;;0.60;99.90;;;;;;5091683;28;20415;-52
2022/01/29 04:07:58;;;;;;;13.75;7.35;;;0.60;99.90;;;;;;5090879;28;20040;-51
2022/01/29 04:10:28;;;;;;;15.07;7.10;;;0.60;99.90;;;;;;5091489;28;20093;-54
2022/01/29 04:12:55;;;;;;;12.38;7.15;;;0.60;99.90;;;;;;5091425;28;20564;-51
2022/01/29 04:15:22;;;;;;;14.27;6.28;;;0.50;99.90;;;;;;5091362;28;20048;-53
2022/01/29 04:17:50;;;;;;;12.18;6.80;;;0.60;99.90;;;;;;5091106;28;20056;-56
2022/01/29 04:20:17;;;;;;;12.15;6.68;;;0.60;99.90;;;;;;5091146;28;20036;-52
2022/01/29 04:22:43;;;;;;;13.07;6.90;;;0.60;99.90;;;;;;5091393;28;20048;-55
2022/01/29 04:25:10;;;;;;;14.52;6.65;;;0.50;99.90;;;;;;5091355;28;20041;-55
2022/01/29 04:27:42;;;;;;;14.25;7.00;;;0.50;99.90;;;;;;5090985;28;20040;-51
2022/01/29 04:30:15;;;;;;;13.02;7.03;;;0.50;99.90;;;;;;5091014;28;20040;-54
2022/01/29 04:35:14;;;;;;;14.45;7.40;;;0.50;99.90;;;;;;5091201;28;20441;-55
2022/01/29 04:37:41;;;;;;;17.77;7.95;;;0.50;99.90;;;;;;5090724;28;20044;-54
2022/01/29 04:40:09;;;;;;;13.82;7.20;;;0.40;99.90;;;;;;5090985;28;20043;-55
2022/01/29 04:42:36;;;;;;;13.30;7.00;;;0.40;99.90;;;;;;5091347;28;20129;-54
2022/01/29 04:45:03;;;;;;;13.70;5.43;;;0.40;99.90;;;;;;5090996;28;20101;-53
2022/01/29 04:47:30;;;;;;;15.20;6.60;;;0.40;99.90;;;;;;5090837;28;20044;-56
2022/01/29 04:49:57;;;;;;;14.95;7.38;;;0.40;99.90;;;;;;5090888;28;20040;-52
2022/01/29 04:52:24;;;;;;;11.32;5.82;;;0.50;99.90;;;;;;5091186;28;20048;-53
2022/01/29 04:54:50;;;;;;;13.02;7.25;;;0.40;99.90;;;;;;5090762;28;20135;-53
2022/01/29 04:57:17;;;;;;;17.90;7.60;;;0.40;99.90;;;;;;5090657;28;20037;-52
2022/01/29 04:59:44;;;;;;;12.88;6.85;;;0.40;99.90;;;;;;5091219;28;20561;-52
2022/01/29 05:02:11;;;;;;;16.25;7.28;;;0.40;99.90;;;;;;5094750;28;20570;-55
2022/01/29 05:04:37;;;;;;;16.25;6.80;;;0.50;99.90;;;;;;5094774;28;20048;-55
2022/01/29 05:07:04;;;;;;;21.02;7.20;;;0.50;99.90;;;;;;5094253;28;20849;-55
2022/01/29 05:09:31;;;;;;;29.98;10.48;;;0.50;99.90;;;;;;5094578;28;20060;-56
2022/01/29 05:12:00;;;;;;;66.20;20.65;;;0.40;99.90;;;;;;5094556;28;20115;-55
2022/01/29 05:15:04;;;;;;;42.65;14.55;;;0.40;99.90;;;;;;5094488;28;20040;-56
2022/01/29 05:26:50;;;;;;;16.20;7.65;;;0.30;99.90;;;;;;5091880;28;20047;-53
2022/01/29 05:28:20;;;;;;;13.07;5.80;;;0.50;99.90;;;;;;5093786;28;20109;-52
2022/01/29 05:30:47;;;;;;;14.00;6.63;;;0.40;99.90;;;;;;5094223;28;20086;-53
2022/01/29 05:33:14;;;;;;;11.75;6.85;;;0.40;99.90;;;;;;5094116;28;20063;-53
2022/01/29 05:35:40;;;;;;;13.55;5.45;;;0.50;99.90;;;;;;5093826;28;20040;-56
2022/01/29 05:38:07;;;;;;;14.45;5.85;;;0.50;99.90;;;;;;5093695;28;20040;-52
2022/01/29 05:40:34;;;;;;;12.43;5.88;;;0.50;99.90;;;;;;5094116;28;20039;-54
2022/01/29 05:43:01;;;;;;;9.95;5.43;;;0.50;99.90;;;;;;5094027;28;20112;-51
2022/01/29 05:45:28;;;;;;;12.18;5.65;;;0.50;99.90;;;;;;5093925;28;20040;-53
2022/01/29 05:47:54;;;;;;;9.35;5.07;;;0.50;99.90;;;;;;5093241;28;20043;-54
2022/01/29 05:50:21;;;;;;;14.02;5.70;;;0.50;99.90;;;;;;5093582;28;20047;-53
2022/01/29 05:52:48;;;;;;;8.63;4.88;;;0.50;99.90;;;;;;5093755;28;20101;-56
2022/01/29 05:55:15;;;;;;;11.63;5.47;;;0.50;99.90;;;;;;5093644;28;20072;-54
2022/01/29 05:57:42;;;;;;;9.85;5.38;;;0.50;99.90;;;;;;5093041;28;20044;-53
2022/01/29 06:00:09;;;;;;;12.85;6.68;;;0.50;99.90;;;;;;5093650;28;20036;-55
2022/01/29 06:02:42;;;;;;;12.88;5.70;;;0.50;99.90;;;;;;5093824;28;20047;-56
2022/01/29 06:05:10;;;;;;;10.70;5.50;;;0.60;99.90;;;;;;5093297;28;20127;-55
2022/01/29 06:07:36;;;;;;;13.98;5.60;;;0.50;99.90;;;;;;5092921;28;20097;-54
2022/01/29 06:10:03;;;;;;;9.13;5.22;;;0.50;99.90;;;;;;5093332;28;20089;-56
2022/01/29 06:12:36;;;;;;;8.70;5.10;;;0.50;99.90;;;;;;5093360;28;20548;-52
2022/01/29 06:15:04;;;;;;;13.55;5.97;;;0.50;99.90;;;;;;5093357;28;20044;-52
2022/01/29 06:17:30;;;;;;;;;;;0.50;99.90;;;;;;5092938;28;20047;-53
2022/01/29 06:19:57;;;;;;;13.88;5.97;;;0.50;99.90;;;;;;5093049;28;20445;-56
2022/01/29 06:22:25;;;;;;;10.93;4.28;;;0.50;99.90;;;;;;5093162;28;20119;-54
2022/01/29 06:24:52;;;;;;;13.20;6.20;;;0.50;99.90;;;;;;5093125;28;20100;-54
2022/01/29 06:27:19;;;;;;;10.40;5.82;;;0.50;99.90;;;;;;5092646;28;20043;-54
2022/01/29 06:29:46;;;;;;;10.55;5.80;;;0.40;99.90;;;;;;5092834;28;20052;-56
2022/01/29 06:32:12;;;;;;;11.25;6.45;;;0.40;99.90;;;;;;5093031;28;20122;-55
2022/01/29 06:34:39;;;;;;;12.90;6.25;;;0.40;99.90;;;;;;5092595;28;20535;-52
2022/01/29 06:37:06;;;;;;;12.00;6.55;;;0.30;99.90;;;;;;5092427;28;20072;-54
2022/01/29 06:39:33;;;;;;;7.93;4.10;;;0.40;99.90;;;;;;5092582;28;20097;-53
2022/01/29 06:41:59;;;;;;;13.25;6.18;;;0.40;99.90;;;;;;5092874;28;20230;-53
2022/01/29 06:44:26;;;;;;;10.82;5.78;;;0.50;99.90;;;;;;5092560;28;20557;-55
2022/01/29 06:46:53;;;;;;;12.93;6.45;;;0.40;99.90;;;;;;5092427;28;20084;-54
2022/01/29 06:49:20;;;;;;;14.63;6.45;;;0.50;99.90;;;;;;5109425;22;20458;-58
2022/01/29 06:51:47;;;;;;;12.90;6.90;;;0.50;99.90;;;;;;5117512;27;20043;-58
2022/01/29 06:54:14;;;;;;;13.50;7.32;;;0.50;99.90;;;;;;5112684;28;20047;-58
2022/01/29 06:56:40;;;;;;;12.95;7.03;;;0.50;99.90;;;;;;5112689;28;20031;-58
2022/01/29 06:59:07;;;;;;;16.33;7.30;;;0.50;99.90;;;;;;5112175;28;20445;-58
2022/01/29 07:01:37;;;;;;;13.15;6.22;;;0.50;99.90;;;;;;5112209;28;20044;-58
2022/01/29 07:04:04;;;;;;;12.88;6.38;;;0.60;99.90;;;;;;5112545;28;20070;-58
2022/01/29 07:06:32;;;;;;;;;;;0.60;99.90;;;;;;5112859;28;20130;-58
2022/01/29 07:08:59;;;;;;;10.82;6.30;;;0.60;99.90;;;;;;5111999;28;19920;-58
2022/01/29 07:11:26;;;;;;;12.95;6.72;;;0.60;99.90;;;;;;5112432;28;20051;-58
2022/01/29 07:14:01;;;;;;;13.52;5.80;;;0.70;99.90;;;;;;5112419;28;20096;-58
2022/01/29 07:16:33;;;;;;;16.63;6.93;;;0.80;99.90;;;;;;5112337;28;20054;-58
2022/01/29 07:19:01;;;;;;;14.23;6.75;;;0.80;99.90;;;;;;5111980;28;20075;-58
2022/01/29 07:21:27;;;;;;;;;;;0.80;99.90;;;;;;5112717;28;20114;-58
2022/01/29 07:23:54;;;;;;;25.15;9.93;;;0.80;99.90;;;;;;5111889;28;19919;-58
2022/01/29 07:26:21;;;;;;;20.55;9.00;;;0.90;99.90;;;;;;5112339;28;20043;-58
2022/01/29 07:28:48;;;;;;;12.98;5.82;;;0.90;99.90;;;;;;5111857;28;20509;-58
2022/01/29 07:31:19;;;;;;;21.42;8.40;;;1.00;99.90;;;;;;5112263;28;20101;-58
2022/01/29 07:33:46;;;;;;;21.67;11.10;;;1.00;99.90;;;;;;5112078;28;20134;-58
2022/01/29 07:36:13;;;;;;;15.13;7.45;;;1.10;99.90;;;;;;5112212;28;20043;-58
2022/01/29 07:38:40;;;;;;;14.10;7.50;;;1.10;99.90;;;;;;5111648;28;20036;-58
2022/01/29 07:41:07;;;;;;;14.48;5.50;;;1.10;99.90;;;;;;5112024;28;20077;-58
2022/01/29 07:43:34;;;;;;;13.27;5.22;;;1.20;99.90;;;;;;5111953;28;20672;-58
2022/01/29 07:46:01;;;;;;;11.30;6.25;;;1.20;99.90;;;;;;5118735;28;20039;-58
2022/01/29 07:48:28;;;;;;;13.63;6.07;;;1.20;99.90;;;;;;5129321;27;20039;-59
2022/01/29 07:50:54;;;;;;;11.98;6.22;;;1.20;99.90;;;;;;5153028;27;20047;-58
2022/01/29 07:53:21;;;;;;;12.13;6.32;;;1.30;99.90;;;;;;5153152;27;20034;-58
2022/01/29 07:55:48;;;;;;;16.92;7.38;;;1.30;99.90;;;;;;5145424;27;20097;-58
2022/01/29 07:58:15;;;;;;;12.10;6.75;;;1.40;99.90;;;;;;5111331;28;20036;-58
2022/01/29 08:00:42;;;;;;;11.30;5.90;;;1.40;99.90;;;;;;5114277;28;20047;-58
2022/01/29 08:03:08;;;;;;;10.18;5.22;;;1.50;99.90;;;;;;5131367;28;20062;-58
2022/01/29 08:05:36;;;;;;;14.60;5.88;;;1.50;99.90;;;;;;5121350;28;20045;-58
2022/01/29 08:08:03;;;;;;;15.82;7.00;;;1.60;99.90;;;;;;5120439;28;20059;-58
2022/01/29 08:10:30;;;;;;;11.73;7.28;;;1.70;99.90;;;;;;5122403;28;20039;-58
2022/01/29 08:12:57;;;;;;;14.73;7.80;;;1.80;99.90;;;;;;5121269;28;20078;-58
2022/01/29 08:15:24;;;;;;;17.73;6.93;;;1.90;99.90;;;;;;5120629;28;20039;-58
2022/01/29 08:17:51;;;;;;;11.38;5.82;;;2.00;99.90;;;;;;5120079;28;20122;-58
2022/01/29 08:20:18;;;;;;;18.52;8.80;;;2.00;99.90;;;;;;5121315;28;20155;-58
2022/01/29 08:22:47;;;;;;;26.17;10.20;;;1.90;99.90;;;;;;5122392;28;20089;-58
2022/01/29 08:25:14;;;;;;;21.90;10.23;;;1.90;99.90;;;;;;5120572;28;20027;-58
2022/01/29 08:27:41;;;;;;;19.58;9.90;;;1.90;99.90;;;;;;5131796;28;20039;-58
2022/01/29 08:30:08;;;;;;;21.02;9.93;;;1.90;99.90;;;;;;5132051;28;20068;-58
2022/01/29 08:32:41;;;;;;;22.08;11.38;;;2.10;99.90;;;;;;5132129;28;20122;-58
2022/01/29 08:35:10;;;;;;;19.23;11.63;;;2.20;99.90;;;;;;5133054;27;20035;-58
2022/01/29 08:37:37;;;;;;;19.42;9.02;;;2.40;99.90;;;;;;5135294;27;20047;-58
2022/01/29 08:40:05;;;;;;;30.65;13.25;;;2.50;99.90;;;;;;5135963;27;20047;-58
2022/01/29 08:42:31;;;;;;;26.73;14.73;;;2.40;99.90;;;;;;5136054;27;20436;-58
2022/01/29 08:44:59;;;;;;;22.60;12.35;;;2.50;99.90;;;;;;5135956;27;20520;-58
2022/01/29 08:47:26;;;;;;;21.38;12.00;;;2.50;99.90;;;;;;5135478;27;20047;-58
2022/01/29 08:49:52;;;;;;;16.95;9.35;;;2.50;99.90;;;;;;5135394;27;20107;-58
2022/01/29 08:52:19;;;;;;;18.42;9.27;;;2.60;99.90;;;;;;5135815;27;20070;-58
2022/01/29 08:54:46;;;;;;;15.90;8.13;;;2.70;99.90;;;;;;5135556;27;20051;-58
2022/01/29 08:57:13;;;;;;;15.52;7.78;;;2.70;99.90;;;;;;5135281;27;20067;-58
2022/01/29 08:59:40;;;;;;;13.55;7.97;;;2.80;99.90;;;;;;5135481;27;20039;-58
2022/01/29 09:02:07;;;;;;;16.50;8.10;;;2.70;99.90;;;;;;5135360;27;20035;-58
2022/01/29 09:04:34;;;;;;;21.17;10.52;;;2.60;99.90;;;;;;5135545;27;20043;-58
2022/01/29 09:07:01;;;;;;;16.45;8.55;;;2.60;99.90;;;;;;5135090;27;20495;-58
2022/01/29 09:09:28;;;;;;;14.98;7.95;;;2.70;99.90;;;;;;5135517;27;20039;-58
2022/01/29 09:11:59;;;;;;;15.95;7.57;;;2.80;99.90;;;;;;5135414;27;20375;-58
2022/01/29 09:14:25;;;;;;;19.50;7.13;;;2.80;99.90;;;;;;5135149;27;20039;-58
2022/01/29 09:16:52;;;;;;;13.25;6.50;;;2.70;99.90;;;;;;5134984;27;20556;-58
2022/01/29 09:19:20;;;;;;;8.38;4.20;;;2.60;99.90;;;;;;5135081;27;20031;-58
2022/01/29 09:21:46;;;;;;;;;;;2.50;99.90;;;;;;5135589;27;20035;-57
2022/01/29 09:24:13;;;;;;;16.58;8.00;;;2.40;99.90;;;;;;5135370;27;20290;-58
2022/01/29 09:26:40;;;;;;;11.57;6.47;;;2.10;99.90;;;;;;5135153;27;20043;-58
2022/01/29 09:29:07;;;;;;;11.35;6.22;;;2.00;99.90;;;;;;5134704;27;20086;-57
2022/01/29 09:31:34;;;;;;;11.82;6.35;;;2.00;99.90;;;;;;5134966;27;20095;-58
2022/01/29 09:34:01;;;;;;;10.55;6.25;;;2.20;99.90;;;;;;5134691;27;20043;-58
2022/01/29 09:36:28;;;;;;;12.43;5.57;;;2.40;99.90;;;;;;5134267;27;20046;-58
2022/01/29 09:38:55;;;;;;;10.98;5.72;;;2.50;99.90;;;;;;5133954;27;20047;-58
2022/01/29 09:41:24;;;;;;;9.80;4.15;;;2.80;99.90;;;;;;5134856;27;20043;-58
2022/01/29 09:43:55;;;;;;;7.13;3.63;;;2.70;99.90;;;;;;5134739;27;20035;-58
2022/01/29 09:46:27;;;;;;;8.38;5.00;;;3.00;99.90;;;;;;5134152;27;20047;-58
2022/01/29 09:48:54;;;;;;;12.13;5.38;;;3.30;99.90;;;;;;5134463;27;20067;-58
2022/01/29 09:51:22;;;;;;;12.18;6.03;;;3.40;99.90;;;;;;5134503;27;20043;-58
2022/01/29 09:53:48;;;;;;;11.20;5.70;;;3.30;99.90;;;;;;5134667;27;20483;-58
2022/01/29 09:56:16;;;;;;;9.45;4.93;;;3.30;99.90;;;;;;5134589;27;20035;-58
2022/01/29 09:58:43;;;;;;;;;;;3.30;99.90;;;;;;5134478;27;20544;-58
2022/01/29 10:01:10;;;;;;;9.73;5.55;;;3.30;99.90;;;;;;5133819;27;19923;-58
2022/01/29 10:03:37;;;;;;;14.77;6.40;;;3.30;99.90;;;;;;5134397;27;20051;-58
2022/01/29 10:06:04;;;;;;;17.00;7.22;;;3.20;99.90;;;;;;5122523;27;20078;-58
2022/01/29 10:08:43;;;;;;;14.52;7.32;;;3.00;99.90;;;;;;5135924;27;20038;-58
2022/01/29 10:11:23;;;;;;;10.70;5.05;;;3.00;99.90;;;;;;5146541;27;20057;-58
2022/01/29 10:13:52;;;;;;;9.90;5.15;;;3.00;99.90;;;;;;5122272;27;20487;-58
2022/01/29 10:16:20;;;;;;;12.50;5.50;;;3.10;99.90;;;;;;5127296;27;20433;-58
2022/01/29 10:19:00;;;;;;;11.82;6.00;;;3.00;99.90;;;;;;5132047;27;20035;-58
2022/01/29 10:21:41;;;;;;;9.70;5.40;;;3.00;99.90;;;;;;5131633;27;20121;-58
2022/01/29 10:24:16;;;;;;;9.35;4.57;;;2.90;99.90;;;;;;5132111;27;20039;-57
2022/01/29 10:26:45;;;;;;;6.97;4.65;;;3.00;99.90;;;;;;5131343;27;20483;-57
2022/01/29 10:29:28;;;;;;;12.40;4.68;;;3.00;99.90;;;;;;5133280;27;20066;-58
2022/01/29 10:31:57;;;;;;;7.75;4.85;;;3.10;99.90;;;;;;5133851;27;20050;-58
2022/01/29 10:34:32;;;;;;;17.73;5.78;;;3.20;99.90;;;;;;5133581;27;20156;-58
2022/01/29 10:37:16;;;;;;;11.15;5.47;;;3.30;99.90;;;;;;5133164;27;20035;-57
2022/01/29 10:39:47;;;;;;;34.28;13.27;;;3.50;99.90;;;;;;5132623;27;20043;-58
2022/01/29 10:42:18;;;;;;;15.45;5.43;;;3.60;99.90;;;;;;5122951;27;20556;-58
2022/01/29 10:44:47;;;;;;;11.82;5.32;;;3.80;99.90;;;;;;5121679;27;20183;-59
2022/01/29 10:47:14;;;;;;;10.02;5.78;;;3.90;99.90;;;;;;5122473;27;20049;-59
2022/01/29 10:50:02;;;;;;;;;;;4.10;99.90;;;;;;5123860;27;20494;-59
2022/01/29 10:52:32;;;;;;;14.68;5.82;;;4.00;99.90;;;;;;5122183;27;20291;-58
2022/01/29 10:55:05;;;;;;;12.23;6.25;;;3.80;99.90;;;;;;5120246;27;20035;-58
2022/01/29 10:57:46;;;;;;;12.32;6.47;;;3.80;99.90;;;;;;5111760;28;20035;-58
2022/01/29 11:00:18;;;;;;;8.52;5.05;;;3.80;99.90;;;;;;5112731;28;20433;-58
2022/01/29 11:02:45;;;;;;;13.65;5.07;;;3.80;99.90;;;;;;5112860;28;20096;-58
2022/01/29 11:05:13;;;;;;;12.38;6.32;;;4.00;99.90;;;;;;5112552;28;20043;-58
2022/01/29 11:07:45;;;;;;;10.77;4.97;;;4.10;99.90;;;;;;5111993;28;20047;-59
2022/01/29 11:10:12;;;;;;;13.35;5.75;;;4.20;99.90;;;;;;5112688;28;20408;-58
2022/01/29 11:12:44;;;;;;;12.40;5.53;;;4.30;99.90;;;;;;5112755;28;20415;-58
2022/01/29 11:15:11;;;;;;;15.57;6.00;;;4.40;99.90;;;;;;5112538;28;20510;-58
2022/01/29 11:17:39;;;;;;;12.65;5.30;;;4.40;99.90;;;;;;5111837;28;20110;-57
2022/01/29 11:20:07;;;;;;;10.18;5.20;;;4.40;99.90;;;;;;5112489;28;20426;-58
2022/01/29 11:22:38;;;;;;;15.23;5.60;;;4.40;99.90;;;;;;5112405;28;20550;-58
2022/01/29 11:25:12;;;;;;;10.65;5.15;;;4.40;99.90;;;;;;5112458;28;20105;-58
2022/01/29 11:27:39;;;;;;;9.00;4.35;;;4.60;99.90;;;;;;5111757;28;20051;-58
2022/01/29 11:30:09;;;;;;;13.15;5.43;;;4.20;99.90;;;;;;5112309;28;20092;-57
2022/01/29 11:32:45;;;;;;;11.73;6.25;;;4.10;99.90;;;;;;5112268;28;20445;-58
2022/01/29 11:35:15;;;;;;;13.60;7.53;;;4.30;99.90;;;;;;5112058;28;20427;-58
2022/01/29 11:37:43;;;;;;;26.70;9.18;;;4.40;99.90;;;;;;5111820;28;20071;-58
2022/01/29 11:40:20;;;;;;;34.28;14.20;;;4.40;99.90;;;;;;5112142;28;20043;-57
2022/01/29 11:43:13;;;;;;;20.15;9.88;;;4.50;99.90;;;;;;5112058;28;20047;-58
2022/01/29 11:45:43;;;;;;;15.10;8.10;;;4.20;99.90;;;;;;5112200;28;20043;-58
2022/01/29 11:48:25;;;;;;;12.57;7.68;;;4.10;99.90;;;;;;5111713;28;20122;-58
2022/01/29 11:51:06;;;;;;;12.85;6.25;;;4.20;99.90;;;;;;5119998;27;20037;-58
2022/01/29 11:53:45;;;;;;;13.05;6.40;;;4.20;99.90;;;;;;5122474;27;20039;-58
2022/01/29 11:56:35;;;;;;;13.80;7.00;;;4.20;99.90;;;;;;5125939;28;20038;-58
2022/01/29 11:59:23;;;;;;;9.93;5.13;;;4.30;99.90;;;;;;5131998;28;20043;-58
2022/01/29 12:01:55;;;;;;;13.10;6.15;;;4.20;99.90;;;;;;5128225;28;20491;-58
2022/01/29 12:04:23;;;;;;;10.60;5.45;;;4.30;99.90;;;;;;5122380;28;20039;-57
2022/01/29 12:07:06;;;;;;;12.18;5.25;;;4.40;99.90;;;;;;5120462;28;20110;-58
2022/01/29 12:09:47;;;;;;;10.25;5.03;;;4.20;99.90;;;;;;5122869;27;20041;-58
2022/01/29 12:12:18;;;;;;;11.18;5.28;;;4.30;99.90;;;;;;5125236;27;20088;-58
2022/01/29 12:14:47;;;;;;;9.68;5.63;;;4.40;99.90;;;;;;5127745;27;20121;-58
2022/01/29 12:17:38;;;;;;;11.48;6.13;;;4.50;99.90;;;;;;5124850;27;20035;-58
2022/01/29 12:20:07;;;;;;;11.80;5.93;;;4.30;99.90;;;;;;5128233;27;20038;-58
2022/01/29 12:22:38;;;;;;;13.00;5.68;;;4.30;99.90;;;;;;5126225;27;20040;-57
2022/01/29 12:25:08;;;;;;;15.23;6.68;;;4.20;99.90;;;;;;5130777;27;20039;-58
2022/01/29 12:27:49;;;;;;;10.20;6.28;;;4.20;99.90;;;;;;5135785;27;20092;-57
2022/01/29 12:30:29;;;;;;;15.45;7.25;;;4.40;99.90;;;;;;5136093;27;20479;-57
2022/01/29 12:33:09;;;;;;;11.65;6.20;;;4.50;99.90;;;;;;5136188;27;20051;-58
2022/01/29 12:35:53;;;;;;;13.05;5.55;;;4.60;99.90;;;;;;5135648;27;20035;-58
2022/01/29 12:38:35;;;;;;;9.25;6.00;;;4.70;99.90;;;;;;5134201;27;20422;-57
2022/01/29 12:41:04;;;;;;;56.60;21.48;;;4.70;99.90;;;;;;5135607;27;20032;-58
2022/01/29 12:43:50;;;;;;;20.00;9.60;;;4.90;99.90;;;;;;5134355;27;20084;-58
2022/01/29 12:46:23;;;;;;;14.40;8.05;;;5.00;99.90;;;;;;5115759;27;20047;-58
2022/01/29 12:49:11;;;;;;;12.68;7.30;;;5.00;99.90;;;;;;5115231;27;20040;-58
2022/01/29 12:51:54;;;;;;;14.82;7.00;;;4.80;99.90;;;;;;5115663;27;20411;-58
2022/01/29 12:54:22;;;;;;;13.30;7.18;;;4.70;99.90;;;;;;5115494;27;20449;-58
2022/01/29 12:56:49;;;;;;;12.65;6.95;;;4.90;99.90;;;;;;5115252;27;20387;-58
2022/01/29 12:59:17;;;;;;;12.70;7.35;;;5.10;99.90;;;;;;5120744;27;20478;-58
2022/01/29 13:01:46;;;;;;;14.07;7.03;;;5.20;99.90;;;;;;5131131;27;20036;-58
2022/01/29 13:04:18;;;;;;;13.18;6.78;;;5.50;99.90;;;;;;5138755;27;20043;-58
2022/01/29 13:06:47;;;;;;;21.63;9.00;;;5.40;99.90;;;;;;5130251;27;20055;-58
2022/01/29 13:09:22;;;;;;;14.63;7.80;;;5.30;99.90;;;;;;5135225;27;20046;-58
2022/01/29 13:12:04;;;;;;;16.02;7.40;;;5.40;99.90;;;;;;5132282;27;20096;-59
2022/01/29 13:14:33;;;;;;;13.70;6.55;;;5.60;99.90;;;;;;5128291;27;20035;-58